Time;durP1;ratioP1;P1;durP2;ratioP2;P2;SDS_P1;SDS_P2;PMS_P1;PMS_P2;Temp;Humidity;BMP_temperature;BMP_pressure;BME280_temperature;BME280_humidity;BME280_pressure;Samples;Min_cycle;Max_cycle;Signal;HPM_P1;HPM_P2
2024/01/21 00:00:08;;;;;;;;;;;;;;;-0.68;85.86;99684.27;107362;1256;72418;-39
2024/01/21 00:02:38;;;;;;;15.90;6.30;;;;;;;-0.69;85.85;99685.55;107315;1258;60967;-39
2024/01/21 00:05:07;;;;;;;9.80;5.60;;;;;;;-0.66;85.74;99686.33;107271;1254;59256;-39
2024/01/21 00:07:34;;;;;;;10.50;6.20;;;;;;;-0.62;85.85;99688.73;107259;1254;73866;-39
2024/01/21 00:10:02;;;;;;;11.20;6.30;;;;;;;-0.66;85.90;99691.27;106382;1255;1003755;-40
2024/01/21 00:12:29;;;;;;;12.30;6.20;;;;;;;-0.68;85.98;99692.68;107201;1254;72705;-40
2024/01/21 00:14:57;;;;;;;12.70;6.60;;;;;;;-0.66;86.18;99695.01;107158;1255;60846;-40
2024/01/21 00:17:25;;;;;;;11.20;6.30;;;;;;;-0.60;85.89;99696.02;107103;1257;61139;-40
2024/01/21 00:19:53;;;;;;;14.10;6.70;;;;;;;-0.63;85.77;99697.27;107079;1257;73869;-40
2024/01/21 00:22:20;;;;;;;13.00;7.10;;;;;;;-0.65;86.03;99697.33;107104;1257;68853;-40
2024/01/21 00:24:48;;;;;;;15.00;7.40;;;;;;;-0.65;85.94;99698.61;107164;1256;72731;-40
2024/01/21 00:27:18;;;;;;;13.60;6.90;;;;;;;-0.60;85.67;99694.21;107170;1257;60866;-40
2024/01/21 00:29:46;;;;;;;12.40;7.10;;;;;;;-0.56;85.36;99689.44;107281;1257;59392;-40
2024/01/21 00:32:13;;;;;;;14.70;7.20;;;;;;;-0.57;85.26;99689.92;107159;1258;73810;-40
2024/01/21 00:34:41;;;;;;;16.20;6.90;;;;;;;-0.61;85.35;99691.39;107225;1257;67094;-40
2024/01/21 00:37:08;;;;;;;15.20;7.70;;;;;;;-0.62;85.42;99692.36;107152;1258;71420;-40
2024/01/21 00:39:36;;;;;;;12.30;6.70;;;;;;;-0.54;85.25;99691.50;107067;1257;60923;-40
2024/01/21 00:42:04;;;;;;;12.10;6.90;;;;;;;-0.49;85.21;99692.95;107097;1257;60511;-40
2024/01/21 00:44:36;;;;;;;11.70;7.50;;;;;;;-0.49;85.22;99696.69;107121;1257;74233;-40
2024/01/21 00:47:04;;;;;;;12.80;7.30;;;;;;;-0.51;85.17;99692.02;107269;1261;68265;-40
2024/01/21 00:49:32;;;;;;;14.70;7.20;;;;;;;-0.52;85.00;99693.45;107199;1259;72775;-40
2024/01/21 00:52:00;;;;;;;17.10;7.20;;;;;;;-0.48;84.85;99691.62;107173;1260;60944;-41
2024/01/21 00:54:28;;;;;;;14.20;7.00;;;;;;;-0.45;84.67;99690.32;107251;1261;60119;-40
2024/01/21 00:56:55;;;;;;;14.00;7.00;;;;;;;-0.48;84.74;99694.81;107204;1257;74026;-40
2024/01/21 00:59:23;;;;;;;15.70;7.50;;;;;;;-0.54;84.75;99694.73;107194;1262;68741;-41
2024/01/21 01:01:50;;;;;;;13.40;7.60;;;;;;;-0.54;84.93;99697.05;107189;1257;73027;-40
2024/01/21 01:04:18;;;;;;;13.60;7.40;;;;;;;-0.50;84.66;99698.41;107214;1257;60511;-40
2024/01/21 01:06:45;;;;;;;12.00;7.70;;;;;;;-0.47;84.58;99695.80;107058;1257;60447;-40
2024/01/21 01:09:13;;;;;;;12.40;7.50;;;;;;;-0.48;84.67;99698.86;107068;1257;73877;-40
2024/01/21 01:11:41;;;;;;;14.20;7.80;;;;;;;-0.52;84.82;99702.98;107174;1257;68344;-40
2024/01/21 01:14:08;;;;;;;16.80;8.00;;;;;;;-0.55;85.03;99702.76;107120;1257;72541;-40
2024/01/21 01:16:38;;;;;;;11.40;7.10;;;;;;;-0.51;84.75;99703.89;107151;1256;60409;-40
2024/01/21 01:19:07;;;;;;;14.40;7.30;;;;;;;-0.47;84.51;99700.08;107310;1257;60299;-40
2024/01/21 01:21:34;;;;;;;18.40;8.00;;;;;;;-0.46;84.44;99703.37;107289;1255;74157;-40
2024/01/21 01:24:03;;;;;;;13.50;7.80;;;;;;;-0.49;84.50;99706.11;107224;1256;67429;-40
2024/01/21 01:26:30;;;;;;;15.50;7.60;;;;;;;-0.52;84.82;99702.61;107225;1256;72676;-40
2024/01/21 01:28:58;;;;;;;11.50;7.40;;;;;;;-0.49;84.73;99702.27;107255;1257;60446;-40
2024/01/21 01:31:25;;;;;;;13.40;8.40;;;;;;;-0.44;84.32;99701.80;107107;1257;149525;-40
2024/01/21 01:35:48;;;;;;;17.70;8.70;;;;;;;-0.42;84.26;99702.31;104151;1291;601316;-39
2024/01/21 01:38:15;;;;;;;12.80;8.00;;;;;;;-0.45;84.44;99704.42;106469;1266;60902;-39
2024/01/21 01:40:43;;;;;;;14.00;7.80;;;;;;;-0.42;84.24;99704.72;106638;1266;59325;-39
2024/01/21 01:43:10;;;;;;;14.20;7.70;;;;;;;-0.33;83.93;99708.55;106652;1266;71036;-39
2024/01/21 01:45:38;;;;;;;14.60;8.70;;;;;;;-0.31;83.56;99705.60;106662;1266;68652;-39
2024/01/21 01:48:07;;;;;;;13.60;8.60;;;;;;;-0.35;83.75;99707.50;106643;1270;72628;-39
2024/01/21 01:50:35;;;;;;;12.30;7.00;;;;;;;-0.37;83.87;99708.30;106722;1264;111014;-40
2024/01/21 01:53:02;;;;;;;17.10;8.20;;;;;;;-0.31;83.46;99708.85;106745;1269;59330;-39
2024/01/21 01:55:30;;;;;;;11.40;7.60;;;;;;;-0.24;83.38;99712.62;106785;1270;72780;-39
2024/01/21 01:57:57;;;;;;;13.20;8.60;;;;;;;-0.24;83.06;99715.23;106709;1264;67591;-39
2024/01/21 02:00:25;;;;;;;14.60;8.40;;;;;;;-0.27;83.15;99716.96;106621;1270;72984;-39
2024/01/21 02:02:52;;;;;;;18.20;8.70;;;;;;;-0.32;83.35;99716.52;106638;1266;59741;-39
2024/01/21 02:05:20;;;;;;;14.70;8.60;;;;;;;-0.28;83.19;99721.08;106687;1266;59534;-39
2024/01/21 02:07:47;;;;;;;14.80;8.30;;;;;;;-0.23;82.91;99721.09;106757;1266;73059;-39
2024/01/21 02:10:15;;;;;;;13.70;9.10;;;;;;;-0.25;83.03;99725.84;107624;1253;68692;-39
2024/01/21 02:12:43;;;;;;;14.20;9.00;;;;;;;-0.33;83.09;99717.23;107467;1253;70753;-39
2024/01/21 02:15:14;;;;;;;13.30;8.50;;;;;;;-0.30;83.13;99733.02;107356;1258;59632;-39
2024/01/21 02:17:41;;;;;;;13.30;8.70;;;;;;;-0.28;83.04;99733.49;107446;1254;59318;-39
2024/01/21 02:20:10;;;;;;;14.80;7.90;;;;;;;-0.23;83.07;99739.73;107460;1260;73062;-39
2024/01/21 02:22:39;;;;;;;16.80;9.30;;;;;;;-0.22;83.13;99739.13;107483;1259;68876;-39
2024/01/21 02:25:07;;;;;;;16.10;7.40;;;;;;;-0.27;83.25;99741.42;107494;1253;73044;-39
2024/01/21 02:27:36;;;;;;;16.10;9.10;;;;;;;-0.31;83.40;99738.16;107607;1258;60909;-39
2024/01/21 02:30:04;;;;;;;14.90;8.20;;;;;;;-0.28;83.48;99744.41;107405;1253;59599;-39
2024/01/21 02:32:32;;;;;;;12.60;8.30;;;;;;;-0.22;83.55;99747.72;107542;1258;73145;-39
2024/01/21 02:34:59;;;;;;;18.00;9.00;;;;;;;-0.23;83.52;99751.61;107411;1254;67093;-39
2024/01/21 02:37:27;;;;;;;15.80;9.50;;;;;;;-0.25;83.66;99756.54;107437;1253;73134;-40
2024/01/21 02:39:54;;;;;;;16.30;9.00;;;;;;;-0.27;83.77;99755.64;107398;1253;59877;-39
2024/01/21 02:42:22;;;;;;;13.40;8.20;;;;;;;-0.23;83.78;99764.25;107458;1258;60299;-39
2024/01/21 02:44:50;;;;;;;15.10;8.70;;;;;;;-0.17;83.21;99763.72;107415;1253;73071;-39
2024/01/21 02:47:18;;;;;;;15.70;8.50;;;;;;;-0.19;83.39;99763.25;107479;1254;67461;-39
2024/01/21 02:49:45;;;;;;;13.40;9.30;;;;;;;-0.25;83.83;99762.83;107424;1259;72547;-39
2024/01/21 02:52:13;;;;;;;14.00;9.40;;;;;;;-0.28;84.11;99766.84;107294;1256;59730;-40
2024/01/21 02:54:40;;;;;;;11.60;8.70;;;;;;;-0.26;84.08;99770.61;107268;1258;60055;-39
2024/01/21 02:57:08;;;;;;;16.10;8.80;;;;;;;-0.21;84.06;99771.75;107389;1258;71768;-39
2024/01/21 02:59:36;;;;;;;16.60;9.30;;;;;;;-0.22;84.16;99772.81;107283;1253;68317;-39
2024/01/21 03:02:04;;;;;;;17.40;9.20;;;;;;;-0.26;84.69;99773.49;107267;1258;72678;-40
2024/01/21 03:04:31;;;;;;;19.00;9.50;;;;;;;-0.29;84.97;99772.51;107375;1254;60871;-40
2024/01/21 03:06:59;;;;;;;16.60;9.70;;;;;;;-0.27;85.07;99775.84;107332;1253;60067;-39
2024/01/21 03:09:26;;;;;;;16.10;8.80;;;;;;;-0.22;84.89;99780.07;107403;1258;73033;-39
2024/01/21 03:11:56;;;;;;;14.60;8.60;;;;;;;-0.21;85.08;99778.57;107327;1254;66122;-39
2024/01/21 03:14:24;;;;;;;13.90;9.30;;;;;;;-0.23;85.17;99782.48;107359;1254;73765;-39
2024/01/21 03:16:51;;;;;;;15.80;9.60;;;;;;;-0.25;85.27;99785.38;107243;1261;59748;-39
2024/01/21 03:19:18;;;;;;;13.80;8.80;;;;;;;-0.21;85.12;99788.80;107235;1255;60040;-39
2024/01/21 03:21:46;;;;;;;18.30;10.10;;;;;;;-0.17;85.04;99792.98;107356;1256;71878;-39
2024/01/21 03:24:14;;;;;;;16.30;9.10;;;;;;;-0.19;85.27;99795.66;107355;1258;67106;-39
2024/01/21 03:26:42;;;;;;;15.70;9.60;;;;;;;-0.24;85.21;99796.54;107368;1258;72472;-39
2024/01/21 03:29:09;;;;;;;14.50;9.30;;;;;;;-0.26;85.41;99800.66;107378;1257;59967;-40
2024/01/21 03:31:37;;;;;;;16.60;9.70;;;;;;;-0.21;85.59;99807.39;107229;1260;60006;-39
2024/01/21 03:34:05;;;;;;;15.90;9.80;;;;;;;-0.13;85.66;99803.45;107265;1260;71790;-39
2024/01/21 03:36:32;;;;;;;15.90;9.90;;;;;;;-0.09;85.86;99811.19;107280;1256;67529;-41
2024/01/21 03:39:00;;;;;;;17.10;10.10;;;;;;;-0.07;86.04;99813.48;107257;1262;71436;-39
2024/01/21 03:41:27;;;;;;;14.30;9.50;;;;;;;-0.08;85.92;99816.14;107197;1255;59786;-39
2024/01/21 03:43:56;;;;;;;13.90;9.20;;;;;;;-0.05;85.83;99816.45;107274;1260;59656;-39
2024/01/21 03:46:25;;;;;;;17.90;10.20;;;;;;;-0.00;85.52;99815.56;107162;1260;72981;-39
2024/01/21 03:48:52;;;;;;;14.50;10.00;;;;;;;0.00;85.53;99817.79;107232;1260;68405;-39
2024/01/21 03:51:20;;;;;;;14.30;10.00;;;;;;;-0.04;85.82;99821.66;107201;1256;71258;-39
2024/01/21 03:53:48;;;;;;;15.40;9.60;;;;;;;-0.09;85.81;99825.10;107178;1260;60888;-39
2024/01/21 03:56:17;;;;;;;14.20;9.10;;;;;;;-0.07;85.77;99828.88;107282;1258;59670;-39
2024/01/21 03:58:46;;;;;;;;;;;;;;;-0.02;85.51;99831.61;107326;1257;72970;-39
2024/01/21 04:01:13;;;;;;;13.50;9.40;;;;;;;-0.01;85.73;99831.88;107275;1257;68845;-39
2024/01/21 04:03:41;;;;;;;13.30;9.30;;;;;;;-0.04;86.02;99839.67;107273;1256;72484;-39
2024/01/21 04:06:09;;;;;;;15.10;10.30;;;;;;;-0.08;86.00;99838.05;107305;1257;59670;-39
2024/01/21 04:08:37;;;;;;;12.90;8.30;;;;;;;-0.01;85.88;99846.21;107266;1257;60051;-39
2024/01/21 04:11:04;;;;;;;14.20;9.00;;;;;;;0.06;85.33;99850.68;107248;1262;72202;-39
2024/01/21 04:13:32;;;;;;;13.10;8.40;;;;;;;0.05;85.50;99853.59;107253;1255;67539;-39
2024/01/21 04:16:00;;;;;;;15.30;9.40;;;;;;;0.03;85.40;99863.45;107266;1260;71508;-39
2024/01/21 04:18:27;;;;;;;14.70;9.10;;;;;;;0.03;85.55;99869.54;107354;1257;61143;-39
2024/01/21 04:20:55;;;;;;;12.00;8.00;;;;;;;0.08;85.06;99874.30;107269;1257;59502;-40
2024/01/21 04:23:23;;;;;;;14.20;8.70;;;;;;;0.13;84.46;99876.19;107262;1260;72182;-39
2024/01/21 04:25:51;;;;;;;13.40;8.80;;;;;;;0.11;84.56;99879.77;107257;1257;68756;-39
2024/01/21 04:28:19;;;;;;;13.40;8.20;;;;;;;0.05;84.47;99883.80;107246;1257;71263;-39
2024/01/21 04:30:46;;;;;;;16.40;8.80;;;;;;;0.03;84.42;99888.52;107246;1260;59476;-39
2024/01/21 04:33:14;;;;;;;14.30;8.00;;;;;;;0.08;84.32;99891.03;107353;1258;59470;-39
2024/01/21 04:35:41;;;;;;;13.40;8.30;;;;;;;0.11;83.67;99897.30;107255;1257;73070;-39
2024/01/21 04:38:09;;;;;;;12.00;8.40;;;;;;;0.07;83.29;99898.13;107153;1255;67462;-40
2024/01/21 04:40:37;;;;;;;14.00;8.30;;;;;;;0.01;83.02;99901.63;107128;1255;72463;-39
2024/01/21 04:43:05;;;;;;;11.80;8.00;;;;;;;-0.05;82.58;99906.95;107182;1258;59731;-39
2024/01/21 04:45:32;;;;;;;11.60;7.50;;;;;;;-0.04;82.08;99909.45;107285;1258;59593;-39
2024/01/21 04:48:02;;;;;;;11.50;7.10;;;;;;;-0.02;81.34;99918.08;107251;1258;71783;-39
2024/01/21 04:50:30;;;;;;;9.90;7.00;;;;;;;-0.08;81.20;99922.38;107238;1258;67164;-39
2024/01/21 04:52:57;;;;;;;11.70;7.70;;;;;;;-0.14;81.50;99927.63;107224;1260;73029;-39
2024/01/21 04:55:25;;;;;;;10.10;7.30;;;;;;;-0.16;81.49;99934.62;107299;1256;59640;-40
2024/01/21 04:57:52;;;;;;;8.00;6.40;;;;;;;-0.15;81.21;99933.55;107293;1259;59986;-39
2024/01/21 05:00:20;;;;;;;9.00;6.00;;;;;;;-0.12;80.93;99937.96;107401;1254;71813;-40
2024/01/21 05:02:48;;;;;;;9.30;6.50;;;;;;;-0.16;80.97;99943.20;107171;1257;67253;-40
2024/01/21 05:05:16;;;;;;;8.40;6.50;;;;;;;-0.22;81.17;99949.05;107347;1259;72440;-40
2024/01/21 05:07:43;;;;;;;10.60;6.60;;;;;;;-0.29;81.43;99954.13;107220;1260;59666;-40
2024/01/21 05:10:11;;;;;;;9.10;6.40;;;;;;;-0.32;81.75;99958.94;107271;1255;59958;-40
2024/01/21 05:12:39;;;;;;;7.50;6.00;;;;;;;-0.33;81.77;99962.30;107247;1257;73015;-40
2024/01/21 05:15:07;;;;;;;10.00;6.80;;;;;;;-0.38;82.04;99963.38;107286;1260;68543;-40
2024/01/21 05:17:35;;;;;;;8.70;6.30;;;;;;;-0.45;82.25;99969.16;107351;1258;72740;-40
2024/01/21 05:20:03;;;;;;;7.50;6.10;;;;;;;-0.49;82.61;99971.11;107245;1257;59594;-40
2024/01/21 05:22:30;;;;;;;7.20;6.20;;;;;;;-0.48;82.74;99980.52;107270;1258;59533;-40
2024/01/21 05:24:58;;;;;;;8.50;6.20;;;;;;;-0.45;82.59;99987.02;107356;1260;71889;-40
2024/01/21 05:27:25;;;;;;;9.50;7.00;;;;;;;-0.47;82.98;99995.16;107155;1257;67112;-40
2024/01/21 05:29:53;;;;;;;11.60;7.40;;;;;;;-0.49;83.16;99999.92;107301;1256;72701;-40
2024/01/21 05:32:20;;;;;;;11.00;7.00;;;;;;;-0.49;83.11;100002.20;107126;1257;59643;-40
2024/01/21 05:34:48;;;;;;;8.10;6.00;;;;;;;-0.41;82.76;100003.04;107289;1256;60005;-40
2024/01/21 05:37:16;;;;;;;8.80;6.60;;;;;;;-0.29;82.57;100009.33;107265;1260;72561;-40
2024/01/21 05:39:43;;;;;;;8.20;6.50;;;;;;;-0.29;82.26;100018.82;107383;1259;67253;-40
2024/01/21 05:42:11;;;;;;;10.30;7.50;;;;;;;-0.30;82.34;100029.33;107302;1259;73148;-40
2024/01/21 05:44:38;;;;;;;9.10;7.10;;;;;;;-0.30;82.18;100033.81;107354;1258;60332;-40
2024/01/21 05:47:06;;;;;;;9.40;7.10;;;;;;;-0.30;82.20;100043.17;107388;1257;60397;-40
2024/01/21 05:49:34;;;;;;;7.60;6.30;;;;;;;-0.23;81.72;100047.16;107256;1256;72865;-40
2024/01/21 05:52:01;;;;;;;9.60;7.00;;;;;;;-0.14;81.43;100052.35;106590;1258;1003010;-40
2024/01/21 05:54:29;;;;;;;10.30;7.90;;;;;;;-0.12;81.09;100055.38;107222;1256;72645;-40
2024/01/21 05:56:56;;;;;;;10.80;7.90;;;;;;;-0.16;81.01;100058.95;107244;1257;60355;-40
2024/01/21 05:59:24;;;;;;;12.20;8.00;;;;;;;-0.16;81.16;100067.39;107241;1257;60518;-40
2024/01/21 06:01:52;;;;;;;10.40;7.70;;;;;;;-0.19;80.77;100069.30;107129;1257;72706;-40
2024/01/21 06:04:20;;;;;;;10.00;7.30;;;;;;;-0.17;80.40;100071.80;107252;1258;67448;-40
2024/01/21 06:06:48;;;;;;;12.00;7.90;;;;;;;-0.15;80.14;100078.58;107387;1257;72521;-40
2024/01/21 06:09:16;;;;;;;11.10;7.60;;;;;;;-0.18;80.17;100086.30;107232;1258;60337;-40
2024/01/21 06:11:46;;;;;;;10.50;8.10;;;;;;;-0.17;80.40;100093.45;107282;1258;60592;-40
2024/01/21 06:14:14;;;;;;;11.40;8.50;;;;;;;-0.17;80.35;100101.23;107132;1257;73876;-40
2024/01/21 06:16:41;;;;;;;12.90;9.50;;;;;;;-0.20;79.82;100105.44;107276;1258;68707;-40
2024/01/21 06:19:10;;;;;;;12.70;8.60;;;;;;;-0.19;79.36;100109.92;107266;1257;72411;-40
2024/01/21 06:21:43;;;;;;;10.00;7.90;;;;;;;-0.15;79.31;100112.95;107366;1258;60300;-41
2024/01/21 06:24:13;;;;;;;11.40;8.40;;;;;;;-0.14;79.37;100119.27;107339;1257;60252;-40
2024/01/21 06:26:41;;;;;;;11.70;9.10;;;;;;;-0.15;79.05;100124.73;107329;1260;73844;-40
2024/01/21 06:29:09;;;;;;;12.10;8.50;;;;;;;-0.18;79.15;100126.75;107335;1256;67436;-40
2024/01/21 06:31:36;;;;;;;11.80;9.20;;;;;;;-0.21;79.11;100135.94;107351;1257;72706;-40
2024/01/21 06:34:04;;;;;;;12.60;8.50;;;;;;;-0.19;78.99;100136.58;107166;1258;61229;-41
2024/01/21 06:36:32;;;;;;;12.00;8.60;;;;;;;-0.11;78.79;100140.38;107432;1257;59244;-46
2024/01/21 06:38:59;;;;;;;11.30;8.60;;;;;;;-0.09;78.80;100146.56;107395;1259;73783;-39
2024/01/21 06:41:27;;;;;;;12.20;9.10;;;;;;;-0.13;78.44;100153.61;107392;1257;67458;-39
2024/01/21 06:43:55;;;;;;;12.90;9.20;;;;;;;-0.17;78.84;100156.65;107349;1257;73022;-39
2024/01/21 06:46:22;;;;;;;12.80;9.60;;;;;;;-0.18;78.71;100164.21;107236;1257;60872;-39
2024/01/21 06:48:50;;;;;;;11.90;8.30;;;;;;;-0.14;78.53;100168.86;107384;1256;60084;-39
2024/01/21 06:54:05;;;;;;;13.70;9.50;;;;;;;-0.06;78.17;100177.11;107426;1256;67902;-39
2024/01/21 06:56:32;;;;;;;15.70;9.90;;;;;;;-0.11;78.19;100177.60;107416;1257;72652;-40
2024/01/21 06:59:00;;;;;;;13.50;9.80;;;;;;;-0.20;78.35;100168.06;107219;1257;60560;-40
2024/01/21 07:01:27;;;;;;;13.60;10.30;;;;;;;-0.15;78.41;100177.71;107193;1255;60854;-40
2024/01/21 07:03:55;;;;;;;12.80;9.10;;;;;;;-0.15;78.14;100189.11;107022;1257;72591;-40
2024/01/21 07:06:22;;;;;;;11.10;8.40;;;;;;;-0.11;78.04;100190.92;107184;1260;67107;-40
2024/01/21 07:08:51;;;;;;;13.60;9.40;;;;;;;-0.06;78.11;100196.36;107213;1256;71428;-39
2024/01/21 07:11:19;;;;;;;12.70;9.40;;;;;;;-0.08;78.29;100201.95;107096;1257;60567;-39
2024/01/21 07:13:46;;;;;;;12.20;9.40;;;;;;;-0.10;78.50;100202.80;107111;1260;60326;-39
2024/01/21 07:16:14;;;;;;;14.60;9.90;;;;;;;-0.08;78.44;100206.36;107158;1260;72605;-39
2024/01/21 07:18:41;;;;;;;13.70;10.10;;;;;;;-0.07;78.53;100210.10;107244;1258;68308;-39
2024/01/21 07:21:10;;;;;;;12.90;9.40;;;;;;;0.01;78.30;100215.38;107229;1256;72651;-39
2024/01/21 07:23:38;;;;;;;14.10;9.30;;;;;;;0.12;78.06;100223.03;107219;1257;60218;-39
2024/01/21 07:26:06;;;;;;;13.20;9.90;;;;;;;0.13;78.13;100230.08;107213;1257;60332;-39
2024/01/21 07:28:34;;;;;;;14.40;10.40;;;;;;;0.12;78.05;100232.79;107104;1256;73859;-40
2024/01/21 07:31:01;;;;;;;14.80;10.60;;;;;;;0.11;77.91;100235.66;107189;1256;67530;-39
2024/01/21 07:33:29;;;;;;;14.20;10.30;;;;;;;0.07;78.17;100244.52;107167;1257;71410;-39
2024/01/21 07:35:58;;;;;;;15.50;11.00;;;;;;;0.04;77.83;100249.70;107390;1255;60258;-39
2024/01/21 07:38:25;;;;;;;16.80;10.50;;;;;;;0.05;77.98;100252.79;107386;1259;60286;-40
2024/01/21 07:40:53;;;;;;;14.90;10.50;;;;;;;0.09;78.03;100258.34;107406;1254;73866;-39
2024/01/21 07:43:20;;;;;;;15.00;11.10;;;;;;;0.06;78.15;100263.98;107420;1254;68702;-40
2024/01/21 07:45:48;;;;;;;14.90;10.80;;;;;;;0.02;78.38;100263.66;107415;1259;70921;-40
2024/01/21 07:48:18;;;;;;;16.80;11.90;;;;;;;-0.01;78.52;100271.30;107401;1257;60455;-40
2024/01/21 07:50:46;;;;;;;16.70;12.00;;;;;;;-0.03;78.75;100278.22;107397;1254;60065;-39
2024/01/21 07:53:14;;;;;;;16.70;11.60;;;;;;;-0.00;78.78;100284.09;107258;1254;73823;-39
2024/01/21 07:55:41;;;;;;;16.00;10.90;;;;;;;0.04;78.57;100286.82;107251;1254;68816;-39
2024/01/21 07:58:08;;;;;;;13.10;10.30;;;;;;;0.03;78.92;100293.26;107289;1254;72015;-39
2024/01/21 08:00:36;;;;;;;16.40;12.00;;;;;;;-0.02;79.00;100297.85;107317;1254;60432;-39
2024/01/21 08:03:05;;;;;;;16.70;12.80;;;;;;;-0.05;79.32;100300.30;106254;1254;1003103;-39
2024/01/21 08:05:33;;;;;;;14.40;8.90;;;;;;;-0.04;79.74;100303.01;107422;1254;73840;-40
2024/01/21 08:08:00;;;;;;;15.90;11.80;;;;;;;0.01;79.78;100307.70;107405;1254;68548;-39
2024/01/21 08:10:32;;;;;;;15.80;11.70;;;;;;;0.06;79.69;100312.02;107346;1254;72702;-39
2024/01/21 08:13:00;;;;;;;14.70;10.80;;;;;;;0.14;79.72;100314.70;107235;1254;60157;-39
2024/01/21 08:15:27;;;;;;;18.30;12.10;;;;;;;0.19;79.80;100321.31;107306;1254;60322;-39
2024/01/21 08:17:55;;;;;;;16.40;11.00;;;;;;;0.21;79.93;100324.34;107282;1254;73928;-39
2024/01/21 08:20:22;;;;;;;17.50;12.30;;;;;;;0.22;79.91;100330.58;107395;1255;68405;-39
2024/01/21 08:22:50;;;;;;;17.20;11.90;;;;;;;0.23;79.91;100337.94;107400;1259;70433;-39
2024/01/21 08:25:17;;;;;;;15.30;11.80;;;;;;;0.31;79.41;100344.39;107393;1256;60554;-39
2024/01/21 08:27:46;;;;;;;17.80;12.10;;;;;;;0.43;79.30;100349.77;107399;1254;60378;-39
2024/01/21 08:30:14;;;;;;;17.70;12.90;;;;;;;0.46;79.11;100353.02;107390;1254;72170;-39
2024/01/21 08:32:42;;;;;;;17.10;12.90;;;;;;;0.44;78.70;100358.52;107457;1254;67213;-39
2024/01/21 08:35:10;;;;;;;18.80;13.30;;;;;;;0.37;78.78;100357.83;107445;1256;71839;-39
2024/01/21 08:37:39;;;;;;;18.60;13.40;;;;;;;0.34;78.93;100362.83;107410;1258;60527;-39
2024/01/21 08:40:07;;;;;;;19.40;12.60;;;;;;;0.34;78.85;100362.41;107387;1254;60470;-39
2024/01/21 08:42:35;;;;;;;21.10;12.70;;;;;;;0.38;78.92;100365.83;107317;1254;72678;-40
2024/01/21 08:45:04;;;;;;;20.30;14.20;;;;;;;0.44;79.28;100368.02;107277;1254;68703;-40
2024/01/21 08:47:31;;;;;;;18.90;13.70;;;;;;;0.48;79.27;100370.89;107343;1254;74037;-40
2024/01/21 08:49:59;;;;;;;21.90;15.80;;;;;;;0.50;79.28;100370.30;107288;1257;60521;-40
2024/01/21 08:52:27;;;;;;;19.40;14.50;;;;;;;0.51;79.56;100371.27;106592;1254;1003096;-40
2024/01/21 08:54:55;;;;;;;19.10;12.90;;;;;;;0.61;79.33;100370.29;107393;1254;73068;-40
2024/01/21 08:57:23;;;;;;;17.20;12.90;;;;;;;0.65;79.11;100366.92;107417;1254;67759;-40
2024/01/21 08:59:51;;;;;;;18.50;13.80;;;;;;;0.77;78.97;100380.30;106611;1255;1002984;-40
2024/01/21 09:02:18;;;;;;;19.20;13.90;;;;;;;0.82;79.14;100386.80;107401;1254;60312;-40
2024/01/21 09:04:46;;;;;;;18.70;13.50;;;;;;;0.83;78.69;100383.16;107429;1254;60461;-40
2024/01/21 09:07:14;;;;;;;18.20;13.70;;;;;;;0.85;78.59;100391.29;107416;1254;73902;-39
2024/01/21 09:09:41;;;;;;;17.40;12.70;;;;;;;0.92;78.41;100396.77;107378;1254;68416;-39
2024/01/21 09:12:10;;;;;;;17.60;12.40;;;;;;;1.00;78.33;100400.13;107360;1256;71397;-39
2024/01/21 09:14:38;;;;;;;18.10;12.80;;;;;;;1.01;78.05;100408.50;107386;1254;60441;-40
2024/01/21 09:17:06;;;;;;;17.10;12.50;;;;;;;0.97;78.06;100414.86;107452;1254;60861;-39
2024/01/21 09:19:33;;;;;;;17.00;13.10;;;;;;;0.90;77.86;100418.19;107396;1254;72637;-39
2024/01/21 09:22:01;;;;;;;17.30;13.10;;;;;;;0.84;78.16;100423.91;107433;1254;68505;-39
2024/01/21 09:24:29;;;;;;;18.50;12.50;;;;;;;0.86;77.98;100424.27;107379;1256;72973;-39
2024/01/21 09:26:56;;;;;;;17.50;12.20;;;;;;;0.91;78.15;100423.47;107409;1254;60326;-40
2024/01/21 09:29:25;;;;;;;16.90;12.20;;;;;;;0.91;78.16;100426.42;107300;1258;60471;-40
2024/01/21 09:31:56;;;;;;;18.00;12.60;;;;;;;0.90;78.22;100428.23;107316;1254;73795;-40
2024/01/21 09:34:24;;;;;;;14.70;11.10;;;;;;;0.88;78.39;100431.58;107355;1254;67581;-40
2024/01/21 09:36:52;;;;;;;14.80;11.30;;;;;;;0.87;78.52;100432.04;107270;1254;71085;-40
2024/01/21 09:39:20;;;;;;;16.10;11.20;;;;;;;0.91;78.63;100436.98;107389;1254;60536;-40
2024/01/21 09:41:49;;;;;;;15.30;10.90;;;;;;;0.96;78.34;100442.26;107393;1254;60526;-40
2024/01/21 09:44:27;;;;;;;15.50;11.30;;;;;;;0.98;78.52;100445.93;107420;1254;72538;-41
2024/01/21 09:46:56;;;;;;;14.90;11.10;;;;;;;0.99;78.73;100455.08;107465;1254;67936;-39
2024/01/21 09:49:24;;;;;;;14.80;10.60;;;;;;;1.01;78.57;100459.63;107382;1254;72697;-39
2024/01/21 09:51:53;;;;;;;14.30;10.80;;;;;;;1.00;78.64;100468.36;107401;1254;60835;-38
2024/01/21 09:54:21;;;;;;;12.70;9.50;;;;;;;1.03;78.61;100470.30;107383;1254;60322;-38
2024/01/21 09:56:49;;;;;;;11.20;9.30;;;;;;;1.08;78.36;100476.15;107462;1254;74568;-38
2024/01/21 09:59:17;;;;;;;11.00;8.60;;;;;;;1.08;78.43;100475.82;107401;1254;68364;-39
2024/01/21 10:01:45;;;;;;;11.40;9.10;;;;;;;1.07;78.42;100483.24;107412;1256;72696;-39
2024/01/21 10:04:14;;;;;;;10.80;8.40;;;;;;;1.08;78.42;100490.62;107222;1254;60499;-39
2024/01/21 10:06:43;;;;;;;10.70;8.30;;;;;;;1.09;78.43;100499.11;107390;1255;60137;-40
2024/01/21 10:09:21;;;;;;;10.50;8.10;;;;;;;1.14;77.95;100505.14;107371;1254;72678;-40
2024/01/21 10:11:53;;;;;;;9.80;7.80;;;;;;;1.18;77.84;100511.50;107414;1254;68504;-39
2024/01/21 10:14:20;;;;;;;10.80;8.50;;;;;;;1.19;78.08;100513.00;107391;1254;72669;-39
2024/01/21 10:16:49;;;;;;;10.70;8.30;;;;;;;1.20;77.93;100519.42;107410;1258;59710;-39
2024/01/21 10:19:31;;;;;;;11.80;8.70;;;;;;;1.20;77.66;100529.45;107397;1254;60506;-39
2024/01/21 10:22:18;;;;;;;11.00;7.10;;;;;;;1.21;77.49;100536.17;107436;1254;73889;-39
2024/01/21 10:24:46;;;;;;;12.20;7.60;;;;;;;1.27;76.65;100543.48;107357;1254;68400;-39
2024/01/21 10:27:15;;;;;;;8.70;6.90;;;;;;;1.29;76.55;100551.40;107318;1258;72661;-39
2024/01/21 10:29:44;;;;;;;11.90;7.60;;;;;;;1.24;76.56;100557.91;107358;1254;60504;-39
2024/01/21 10:32:14;;;;;;;12.60;8.20;;;;;;;1.19;76.19;100562.09;107335;1254;60751;-39
2024/01/21 10:34:50;;;;;;;11.80;7.90;;;;;;;1.12;76.34;100566.47;107298;1254;73991;-40
2024/01/21 10:37:19;;;;;;;11.70;8.60;;;;;;;1.06;76.43;100574.16;107295;1253;68446;-40
2024/01/21 10:39:48;;;;;;;13.30;9.10;;;;;;;1.07;76.34;100582.65;107286;1256;71456;-40
2024/01/21 10:42:16;;;;;;;16.50;10.60;;;;;;;1.06;76.17;100597.88;107351;1254;60410;-40
2024/01/21 10:44:44;;;;;;;15.50;10.70;;;;;;;0.97;75.84;100601.71;107303;1254;60082;-40
2024/01/21 10:47:11;;;;;;;17.30;11.80;;;;;;;0.81;75.61;100608.31;107172;1254;73952;-40
2024/01/21 10:49:39;;;;;;;16.10;11.60;;;;;;;0.67;75.87;100618.10;107314;1254;68727;-40
2024/01/21 10:52:11;;;;;;;16.20;11.30;;;;;;;0.55;75.84;100627.23;107381;1254;71759;-40
2024/01/21 10:54:39;;;;;;;15.90;10.70;;;;;;;0.46;75.27;100636.60;107264;1254;60339;-40
2024/01/21 10:57:06;;;;;;;17.50;12.20;;;;;;;0.39;75.30;100648.48;107279;1254;60325;-40
2024/01/21 10:59:38;;;;;;;18.90;11.70;;;;;;;0.30;75.51;100657.03;107415;1254;73814;-40
2024/01/21 11:02:12;;;;;;;18.30;11.10;;;;;;;0.23;75.47;100659.77;107396;1254;68952;-40
2024/01/21 11:04:39;;;;;;;16.70;11.30;;;;;;;0.15;74.96;100661.90;107371;1257;71503;-40
2024/01/21 11:07:07;;;;;;;15.70;11.30;;;;;;;0.02;74.54;100662.74;107428;1254;60502;-40
2024/01/21 11:09:36;;;;;;;15.90;10.70;;;;;;;-0.12;74.36;100666.39;107252;1254;60531;-40
2024/01/21 11:12:05;;;;;;;;;;;;;;;-0.19;74.32;100668.41;107163;1254;73942;-40
2024/01/21 11:14:36;;;;;;;16.80;10.00;;;;;;;-0.23;74.24;100676.38;107291;1254;67252;-40
2024/01/21 11:17:05;;;;;;;16.40;10.60;;;;;;;-0.32;74.61;100683.94;107269;1254;72831;-40
2024/01/21 11:19:49;;;;;;;16.00;10.60;;;;;;;-0.42;74.82;100691.91;107367;1254;60330;-40
2024/01/21 11:22:22;;;;;;;16.20;10.70;;;;;;;-0.46;74.98;100704.25;107221;1254;60553;-40